EZY1019 LFBD-LPPT
Flight info
| Callsign | EZY1019 |
|---|---|
| Flight time | 1h 39m |
| Altitude | 35000 |
| Route | VAVIX DCT BTZ DCT URUNA P181 NEA DCT ARDID DCT INBOM |
| Aircraft | A320/M-SDE3FGHIRWY/LB1 |
Departure
| Time | 2026-05-09 08:04 |
|---|---|
| Airport | Bordeaux–Mérignac Airport (LFBD) |
Arrival
| Time | 2026-05-09 09:44 |
|---|---|
| Airport | Lisbon Humberto Delgado Airport (LPPT) |
| Time | Latitude | Longitude | Altitude | Speed | Heading |
|---|---|---|---|---|---|
| 2026-05-09 07:37 | 44.82861 | -0.69971 | 173 ft | 0 kts | 18° |
| 2026-05-09 07:55 | 44.82842 | -0.69979 | 173 ft | 4 kts | 9° |
| 2026-05-09 07:56 | 44.82816 | -0.69980 | 173 ft | 4 kts | 338° |
| 2026-05-09 07:56 | 44.82800 | -0.69962 | 173 ft | 1 kts | 288° |
| 2026-05-09 07:56 | 44.82800 | -0.69961 | 173 ft | 0 kts | 288° |
| 2026-05-09 07:58 | 44.82801 | -0.69964 | 173 ft | 1 kts | 288° |
| 2026-05-09 07:59 | 44.82802 | -0.69970 | 173 ft | 1 kts | 288° |
| 2026-05-09 07:59 | 44.82812 | -0.70016 | 173 ft | 9 kts | 287° |
| 2026-05-09 07:59 | 44.82837 | -0.70137 | 173 ft | 16 kts | 285° |
| 2026-05-09 07:59 | 44.82858 | -0.70241 | 172 ft | 17 kts | 287° |
| 2026-05-09 08:00 | 44.82890 | -0.70402 | 172 ft | 17 kts | 279° |
| 2026-05-09 08:00 | 44.82862 | -0.70560 | 172 ft | 17 kts | 275° |
| 2026-05-09 08:00 | 44.82895 | -0.70723 | 171 ft | 18 kts | 287° |
| 2026-05-09 08:00 | 44.82930 | -0.70889 | 170 ft | 15 kts | 287° |
| 2026-05-09 08:01 | 44.82994 | -0.70898 | 170 ft | 11 kts | 44° |
| 2026-05-09 08:01 | 44.83043 | -0.70831 | 170 ft | 9 kts | 45° |
| 2026-05-09 08:01 | 44.83106 | -0.70743 | 170 ft | 17 kts | 45° |
| 2026-05-09 08:01 | 44.83202 | -0.70606 | 169 ft | 21 kts | 45° |
| 2026-05-09 08:02 | 44.83311 | -0.70451 | 169 ft | 23 kts | 46° |
| 2026-05-09 08:02 | 44.83416 | -0.70299 | 168 ft | 21 kts | 45° |
| 2026-05-09 08:02 | 44.83522 | -0.70147 | 168 ft | 22 kts | 46° |
| 2026-05-09 08:02 | 44.83618 | -0.70018 | 168 ft | 16 kts | 29° |
| 2026-05-09 08:03 | 44.83721 | -0.70042 | 167 ft | 15 kts | 336° |
| 2026-05-09 08:03 | 44.83801 | -0.70120 | 168 ft | 13 kts | 295° |
| 2026-05-09 08:03 | 44.83785 | -0.70224 | 168 ft | 11 kts | 227° |
| 2026-05-09 08:03 | 44.83662 | -0.70400 | 167 ft | 57 kts | 225° |
| 2026-05-09 08:04 | 44.83220 | -0.71031 | 171 ft | 121 kts | 225° |
| 2026-05-09 08:04 | 44.82501 | -0.72046 | 182 ft | 169 kts | 224° |
| 2026-05-09 08:04 | 44.81673 | -0.73200 | 826 ft | 166 kts | 224° |
| 2026-05-09 08:04 | 44.80861 | -0.74360 | 1518 ft | 169 kts | 224° |
| 2026-05-09 08:05 | 44.79991 | -0.75607 | 1919 ft | 189 kts | 224° |
| 2026-05-09 08:05 | 44.79012 | -0.77004 | 2221 ft | 212 kts | 223° |
| 2026-05-09 08:05 | 44.77920 | -0.78559 | 2575 ft | 235 kts | 223° |
| 2026-05-09 08:05 | 44.76507 | -0.79837 | 3040 ft | 252 kts | 193° |
| 2026-05-09 08:06 | 44.74766 | -0.80005 | 3817 ft | 257 kts | 175° |
| 2026-05-09 08:06 | 44.72961 | -0.79677 | 4746 ft | 260 kts | 170° |
| 2026-05-09 08:06 | 44.71172 | -0.79218 | 5636 ft | 263 kts | 170° |
| 2026-05-09 08:06 | 44.69360 | -0.78763 | 6507 ft | 266 kts | 171° |
| 2026-05-09 08:07 | 44.67548 | -0.78357 | 7352 ft | 269 kts | 172° |
| 2026-05-09 08:07 | 44.65681 | -0.77984 | 8173 ft | 272 kts | 173° |
| 2026-05-09 08:07 | 44.63763 | -0.77577 | 8987 ft | 278 kts | 172° |
| 2026-05-09 08:07 | 44.61864 | -0.77133 | 9786 ft | 282 kts | 171° |
| 2026-05-09 08:08 | 44.59907 | -0.76668 | 10439 ft | 293 kts | 171° |
| 2026-05-09 08:08 | 44.57817 | -0.76177 | 10669 ft | 316 kts | 171° |
| 2026-05-09 08:08 | 44.55566 | -0.75660 | 10861 ft | 339 kts | 171° |
| 2026-05-09 08:08 | 44.53190 | -0.75122 | 11318 ft | 350 kts | 171° |
| 2026-05-09 08:09 | 44.50773 | -0.74575 | 12010 ft | 353 kts | 171° |
| 2026-05-09 08:09 | 44.48339 | -0.74024 | 12721 ft | 356 kts | 171° |
| 2026-05-09 08:09 | 44.45880 | -0.73470 | 13369 ft | 360 kts | 171° |
| 2026-05-09 08:09 | 44.43393 | -0.72908 | 14007 ft | 364 kts | 171° |
| 2026-05-09 08:10 | 44.40882 | -0.72344 | 14619 ft | 368 kts | 171° |
| 2026-05-09 08:10 | 44.38340 | -0.71779 | 15219 ft | 372 kts | 171° |
| 2026-05-09 08:10 | 44.35772 | -0.71206 | 15809 ft | 375 kts | 171° |
| 2026-05-09 08:10 | 44.33184 | -0.70627 | 16370 ft | 379 kts | 172° |
| 2026-05-09 08:11 | 44.30546 | -0.70354 | 16904 ft | 382 kts | 182° |
| 2026-05-09 08:11 | 44.27904 | -0.70858 | 17436 ft | 385 kts | 194° |
| 2026-05-09 08:11 | 44.25384 | -0.72144 | 17948 ft | 388 kts | 206° |
| 2026-05-09 08:11 | 44.23095 | -0.74160 | 18448 ft | 391 kts | 216° |
| 2026-05-09 08:12 | 44.18689 | -0.78705 | 19465 ft | 396 kts | 216° |
| 2026-05-09 08:12 | 44.16460 | -0.80984 | 19959 ft | 399 kts | 216° |
| 2026-05-09 08:12 | 44.14212 | -0.83272 | 20436 ft | 401 kts | 216° |
| 2026-05-09 08:13 | 44.11981 | -0.85532 | 20903 ft | 404 kts | 216° |
| 2026-05-09 08:13 | 44.09703 | -0.87838 | 21362 ft | 406 kts | 216° |
| 2026-05-09 08:13 | 44.07415 | -0.90159 | 21808 ft | 408 kts | 216° |
| 2026-05-09 08:13 | 44.05113 | -0.92491 | 22246 ft | 410 kts | 216° |
| 2026-05-09 08:14 | 44.02799 | -0.94839 | 22681 ft | 413 kts | 216° |
| 2026-05-09 08:14 | 44.00478 | -0.97195 | 23087 ft | 415 kts | 216° |
| 2026-05-09 08:14 | 43.98140 | -0.99567 | 23485 ft | 417 kts | 216° |
| 2026-05-09 08:14 | 43.95793 | -1.01938 | 23912 ft | 418 kts | 216° |
| 2026-05-09 08:15 | 43.93439 | -1.04309 | 24312 ft | 419 kts | 216° |
| 2026-05-09 08:15 | 43.91073 | -1.06689 | 24696 ft | 421 kts | 216° |
| 2026-05-09 08:15 | 43.88701 | -1.09074 | 25064 ft | 422 kts | 216° |
| 2026-05-09 08:15 | 43.86316 | -1.11471 | 25409 ft | 424 kts | 216° |
| 2026-05-09 08:16 | 43.83923 | -1.13877 | 25746 ft | 426 kts | 216° |
| 2026-05-09 08:16 | 43.81519 | -1.16296 | 26085 ft | 428 kts | 216° |
| 2026-05-09 08:16 | 43.79106 | -1.18719 | 26411 ft | 430 kts | 216° |
| 2026-05-09 08:16 | 43.76678 | -1.21148 | 26731 ft | 431 kts | 216° |
| 2026-05-09 08:17 | 43.74244 | -1.23580 | 27036 ft | 433 kts | 216° |
| 2026-05-09 08:17 | 43.71803 | -1.26020 | 27327 ft | 434 kts | 216° |
| 2026-05-09 08:17 | 43.69349 | -1.28472 | 27611 ft | 436 kts | 216° |
| 2026-05-09 08:17 | 43.66888 | -1.30928 | 27895 ft | 437 kts | 216° |
| 2026-05-09 08:18 | 43.64417 | -1.33396 | 28176 ft | 439 kts | 216° |
| 2026-05-09 08:18 | 43.61943 | -1.35865 | 28490 ft | 439 kts | 216° |
| 2026-05-09 08:18 | 43.59470 | -1.38331 | 28887 ft | 438 kts | 216° |
| 2026-05-09 08:18 | 43.57009 | -1.40780 | 29278 ft | 436 kts | 216° |
| 2026-05-09 08:19 | 43.54553 | -1.43217 | 29660 ft | 434 kts | 216° |
| 2026-05-09 08:19 | 43.52106 | -1.45645 | 30037 ft | 433 kts | 216° |
| 2026-05-09 08:19 | 43.49667 | -1.48065 | 30406 ft | 431 kts | 216° |
| 2026-05-09 08:19 | 43.47326 | -1.50630 | 30760 ft | 430 kts | 224° |
| 2026-05-09 08:20 | 43.45383 | -1.53672 | 31091 ft | 429 kts | 234° |
| 2026-05-09 08:20 | 43.43722 | -1.57070 | 31433 ft | 428 kts | 236° |
| 2026-05-09 08:20 | 43.42077 | -1.60476 | 31762 ft | 427 kts | 236° |
| 2026-05-09 08:20 | 43.40433 | -1.63874 | 32095 ft | 426 kts | 236° |
| 2026-05-09 08:21 | 43.38790 | -1.67258 | 32437 ft | 425 kts | 236° |
| 2026-05-09 08:21 | 43.37151 | -1.70627 | 32769 ft | 424 kts | 235° |
| 2026-05-09 08:21 | 43.35514 | -1.73986 | 33096 ft | 422 kts | 235° |
| 2026-05-09 08:21 | 43.33885 | -1.77334 | 33421 ft | 421 kts | 235° |
| 2026-05-09 08:22 | 43.32259 | -1.80676 | 33735 ft | 420 kts | 235° |
| 2026-05-09 08:22 | 43.30629 | -1.83995 | 34047 ft | 419 kts | 234° |
| 2026-05-09 08:22 | 43.28938 | -1.87236 | 34363 ft | 417 kts | 233° |
| 2026-05-09 08:22 | 43.27192 | -1.90421 | 34647 ft | 417 kts | 232° |
| 2026-05-09 08:23 | 43.25418 | -1.93568 | 34845 ft | 418 kts | 231° |
| 2026-05-09 08:23 | 43.23628 | -1.96720 | 34898 ft | 420 kts | 231° |
| 2026-05-09 08:23 | 43.20048 | -2.03069 | 34906 ft | 421 kts | 232° |
| 2026-05-09 08:24 | 43.16503 | -2.09457 | 34915 ft | 421 kts | 232° |
| 2026-05-09 08:24 | 43.12976 | -2.15844 | 34925 ft | 420 kts | 232° |
| 2026-05-09 08:25 | 43.09442 | -2.22208 | 34922 ft | 420 kts | 232° |
| 2026-05-09 08:25 | 43.05894 | -2.28561 | 34931 ft | 420 kts | 232° |
| 2026-05-09 08:26 | 43.02353 | -2.34890 | 34936 ft | 419 kts | 232° |
| 2026-05-09 08:26 | 42.98812 | -2.41216 | 34944 ft | 419 kts | 232° |
| 2026-05-09 08:27 | 42.95264 | -2.47528 | 34941 ft | 419 kts | 232° |
| 2026-05-09 08:27 | 42.91720 | -2.53839 | 34947 ft | 419 kts | 232° |
| 2026-05-09 08:28 | 42.88171 | -2.60142 | 34952 ft | 418 kts | 232° |
| 2026-05-09 08:28 | 42.84619 | -2.66419 | 34956 ft | 418 kts | 231° |
| 2026-05-09 08:29 | 42.81084 | -2.72643 | 34956 ft | 418 kts | 231° |
| 2026-05-09 08:29 | 42.77530 | -2.78899 | 34955 ft | 418 kts | 231° |
| 2026-05-09 08:30 | 42.73976 | -2.85158 | 34955 ft | 417 kts | 231° |
| 2026-05-09 08:30 | 42.70446 | -2.91431 | 34954 ft | 417 kts | 232° |
| 2026-05-09 08:31 | 42.66950 | -2.97739 | 34953 ft | 418 kts | 232° |
| 2026-05-09 08:31 | 42.63456 | -3.04048 | 34954 ft | 418 kts | 232° |
| 2026-05-09 08:32 | 42.59949 | -3.10342 | 34950 ft | 418 kts | 232° |
| 2026-05-09 08:33 | 42.54685 | -3.19755 | 34940 ft | 417 kts | 232° |
| 2026-05-09 08:33 | 42.51158 | -3.26008 | 34934 ft | 417 kts | 232° |
| 2026-05-09 08:34 | 42.47635 | -3.32259 | 34930 ft | 418 kts | 232° |
| 2026-05-09 08:34 | 42.44114 | -3.38515 | 34931 ft | 418 kts | 232° |
| 2026-05-09 08:35 | 42.40589 | -3.44761 | 34927 ft | 417 kts | 231° |
| 2026-05-09 08:35 | 42.37056 | -3.50990 | 34926 ft | 417 kts | 231° |
| 2026-05-09 08:36 | 42.33524 | -3.57223 | 34927 ft | 418 kts | 231° |
| 2026-05-09 08:36 | 42.30014 | -3.63411 | 34930 ft | 418 kts | 231° |
| 2026-05-09 08:37 | 42.26469 | -3.69625 | 34923 ft | 418 kts | 231° |
| 2026-05-09 08:37 | 42.22924 | -3.75829 | 34919 ft | 417 kts | 231° |
| 2026-05-09 08:38 | 42.19377 | -3.82023 | 34917 ft | 417 kts | 231° |
| 2026-05-09 08:38 | 42.15827 | -3.88215 | 34916 ft | 417 kts | 231° |
| 2026-05-09 08:39 | 42.12283 | -3.94402 | 34914 ft | 417 kts | 231° |
| 2026-05-09 08:39 | 42.08733 | -4.00571 | 34913 ft | 417 kts | 231° |
| 2026-05-09 08:40 | 42.05175 | -4.06732 | 34914 ft | 417 kts | 231° |
| 2026-05-09 08:40 | 42.01897 | -4.13156 | 34910 ft | 419 kts | 241° |
| 2026-05-09 08:41 | 41.99261 | -4.20141 | 34907 ft | 419 kts | 241° |
| 2026-05-09 08:41 | 41.96611 | -4.27110 | 34904 ft | 419 kts | 241° |
| 2026-05-09 08:42 | 41.93958 | -4.34075 | 34902 ft | 419 kts | 241° |
| 2026-05-09 08:42 | 41.91299 | -4.41030 | 34898 ft | 418 kts | 240° |
| 2026-05-09 08:43 | 41.88654 | -4.47928 | 34889 ft | 419 kts | 240° |
| 2026-05-09 08:43 | 41.85989 | -4.54876 | 34886 ft | 419 kts | 240° |
| 2026-05-09 08:44 | 41.83316 | -4.61822 | 34885 ft | 419 kts | 240° |
| 2026-05-09 08:44 | 41.80640 | -4.68762 | 34884 ft | 419 kts | 240° |
| 2026-05-09 08:45 | 41.77954 | -4.75701 | 34886 ft | 420 kts | 240° |
| 2026-05-09 08:45 | 41.75261 | -4.82646 | 34884 ft | 420 kts | 240° |
| 2026-05-09 08:46 | 41.72559 | -4.89597 | 34883 ft | 421 kts | 240° |
| 2026-05-09 08:46 | 41.69852 | -4.96542 | 34882 ft | 421 kts | 240° |
| 2026-05-09 08:47 | 41.67159 | -5.03453 | 34880 ft | 422 kts | 240° |
| 2026-05-09 08:47 | 41.64439 | -5.10410 | 34876 ft | 422 kts | 240° |
| 2026-05-09 08:48 | 41.61708 | -5.17368 | 34875 ft | 423 kts | 240° |
| 2026-05-09 08:48 | 41.58969 | -5.24332 | 34875 ft | 424 kts | 240° |
| 2026-05-09 08:49 | 41.56216 | -5.31302 | 34875 ft | 424 kts | 240° |
| 2026-05-09 08:49 | 41.53465 | -5.38273 | 34872 ft | 424 kts | 240° |
| 2026-05-09 08:50 | 41.50727 | -5.45195 | 34872 ft | 425 kts | 240° |
| 2026-05-09 08:50 | 41.47959 | -5.52156 | 34865 ft | 425 kts | 239° |
| 2026-05-09 08:51 | 41.45629 | -5.57994 | 34861 ft | 426 kts | 240° |
| 2026-05-09 08:51 | 41.42869 | -5.64926 | 34857 ft | 426 kts | 240° |
| 2026-05-09 08:52 | 41.39617 | -5.73067 | 34853 ft | 426 kts | 239° |
| 2026-05-09 08:52 | 41.37294 | -5.78862 | 34852 ft | 426 kts | 239° |
| 2026-05-09 08:53 | 41.34500 | -5.85822 | 34851 ft | 426 kts | 239° |
| 2026-05-09 08:53 | 41.31700 | -5.92782 | 34848 ft | 426 kts | 239° |
| 2026-05-09 08:54 | 41.28903 | -5.99723 | 34845 ft | 426 kts | 239° |
| 2026-05-09 08:54 | 41.26098 | -6.06669 | 34835 ft | 427 kts | 239° |
| 2026-05-09 08:55 | 41.23276 | -6.13623 | 34831 ft | 428 kts | 239° |
| 2026-05-09 08:55 | 41.20441 | -6.20575 | 34831 ft | 428 kts | 239° |
| 2026-05-09 08:56 | 41.17593 | -6.27518 | 34830 ft | 427 kts | 237° |
| 2026-05-09 08:56 | 41.14140 | -6.33904 | 34813 ft | 426 kts | 231° |
| 2026-05-09 08:57 | 41.10594 | -6.40190 | 34815 ft | 426 kts | 231° |
| 2026-05-09 08:57 | 41.07072 | -6.46434 | 34822 ft | 426 kts | 231° |
| 2026-05-09 08:58 | 41.03519 | -6.52717 | 34806 ft | 426 kts | 231° |
| 2026-05-09 08:58 | 40.99959 | -6.58997 | 34822 ft | 426 kts | 231° |
| 2026-05-09 08:59 | 40.96405 | -6.65272 | 34806 ft | 426 kts | 231° |
| 2026-05-09 08:59 | 40.92849 | -6.71536 | 34813 ft | 426 kts | 231° |
| 2026-05-09 09:00 | 40.89286 | -6.77800 | 34805 ft | 426 kts | 231° |
| 2026-05-09 09:00 | 40.85711 | -6.84062 | 34812 ft | 427 kts | 231° |
| 2026-05-09 09:01 | 40.82153 | -6.90271 | 34795 ft | 427 kts | 231° |
| 2026-05-09 09:01 | 40.78568 | -6.96518 | 34791 ft | 427 kts | 231° |
| 2026-05-09 09:02 | 40.74991 | -7.02757 | 34784 ft | 427 kts | 231° |
| 2026-05-09 09:02 | 40.71398 | -7.08998 | 34773 ft | 427 kts | 231° |
| 2026-05-09 09:03 | 40.67805 | -7.15220 | 34764 ft | 427 kts | 231° |
| 2026-05-09 09:03 | 40.64209 | -7.21448 | 34762 ft | 427 kts | 231° |
| 2026-05-09 09:04 | 40.60611 | -7.27679 | 34757 ft | 428 kts | 231° |
| 2026-05-09 09:04 | 40.57001 | -7.33903 | 34755 ft | 428 kts | 231° |
| 2026-05-09 09:05 | 40.53381 | -7.40128 | 34755 ft | 429 kts | 231° |
| 2026-05-09 09:05 | 40.49749 | -7.46349 | 34754 ft | 429 kts | 231° |
| 2026-05-09 09:06 | 40.46118 | -7.52563 | 34750 ft | 429 kts | 231° |
| 2026-05-09 09:06 | 40.42507 | -7.58734 | 34747 ft | 429 kts | 231° |
| 2026-05-09 09:07 | 40.38873 | -7.64944 | 34749 ft | 429 kts | 231° |
| 2026-05-09 09:07 | 40.35232 | -7.71155 | 34745 ft | 430 kts | 231° |
| 2026-05-09 09:08 | 40.31580 | -7.77364 | 34742 ft | 430 kts | 231° |
| 2026-05-09 09:08 | 40.27920 | -7.83561 | 34742 ft | 430 kts | 230° |
| 2026-05-09 09:09 | 40.24263 | -7.89750 | 34736 ft | 430 kts | 230° |
| 2026-05-09 09:09 | 40.22434 | -7.92846 | 34344 ft | 429 kts | 230° |
| 2026-05-09 09:09 | 40.20600 | -7.95943 | 32824 ft | 437 kts | 230° |
| 2026-05-09 09:09 | 40.18712 | -7.99122 | 31745 ft | 445 kts | 230° |
| 2026-05-09 09:10 | 40.16816 | -8.02313 | 30811 ft | 446 kts | 230° |
| 2026-05-09 09:10 | 40.14916 | -8.05508 | 30035 ft | 444 kts | 230° |
| 2026-05-09 09:10 | 40.13020 | -8.08697 | 29066 ft | 445 kts | 230° |
| 2026-05-09 09:10 | 40.11111 | -8.11902 | 27949 ft | 449 kts | 230° |
| 2026-05-09 09:11 | 40.09184 | -8.15131 | 26746 ft | 453 kts | 230° |
| 2026-05-09 09:11 | 40.07241 | -8.18384 | 25708 ft | 454 kts | 230° |
| 2026-05-09 09:11 | 40.05308 | -8.21628 | 24978 ft | 448 kts | 230° |
| 2026-05-09 09:11 | 40.03437 | -8.24770 | 24834 ft | 429 kts | 230° |
| 2026-05-09 09:12 | 40.01440 | -8.27516 | 24709 ft | 408 kts | 217° |
| 2026-05-09 09:12 | 39.99121 | -8.29478 | 24546 ft | 390 kts | 205° |
| 2026-05-09 09:12 | 39.96612 | -8.30660 | 24174 ft | 380 kts | 192° |
| 2026-05-09 09:12 | 39.94053 | -8.31140 | 23915 ft | 375 kts | 186° |
| 2026-05-09 09:13 | 39.91462 | -8.31526 | 23664 ft | 374 kts | 186° |
| 2026-05-09 09:13 | 39.88877 | -8.31921 | 23412 ft | 373 kts | 187° |
| 2026-05-09 09:13 | 39.86309 | -8.32318 | 23157 ft | 371 kts | 187° |
| 2026-05-09 09:13 | 39.83748 | -8.32717 | 22911 ft | 370 kts | 187° |
| 2026-05-09 09:14 | 39.81198 | -8.33113 | 22673 ft | 368 kts | 186° |
| 2026-05-09 09:14 | 39.78660 | -8.33504 | 22413 ft | 366 kts | 187° |
| 2026-05-09 09:14 | 39.76134 | -8.33894 | 22158 ft | 363 kts | 187° |
| 2026-05-09 09:14 | 39.73658 | -8.34272 | 21907 ft | 354 kts | 187° |
| 2026-05-09 09:15 | 39.71256 | -8.34741 | 21656 ft | 345 kts | 194° |
| 2026-05-09 09:15 | 39.69058 | -8.35876 | 21404 ft | 338 kts | 208° |
| 2026-05-09 09:15 | 39.67200 | -8.37686 | 21151 ft | 332 kts | 223° |
| 2026-05-09 09:15 | 39.65737 | -8.39981 | 20902 ft | 328 kts | 230° |
| 2026-05-09 09:16 | 39.64364 | -8.42322 | 20653 ft | 324 kts | 230° |
| 2026-05-09 09:16 | 39.61633 | -8.46952 | 20151 ft | 323 kts | 230° |
| 2026-05-09 09:16 | 39.60270 | -8.49256 | 19899 ft | 322 kts | 230° |
| 2026-05-09 09:17 | 39.58876 | -8.51511 | 19648 ft | 319 kts | 224° |
| 2026-05-09 09:17 | 39.57202 | -8.53374 | 19398 ft | 316 kts | 212° |
| 2026-05-09 09:17 | 39.55330 | -8.54858 | 19147 ft | 315 kts | 210° |
| 2026-05-09 09:17 | 39.53459 | -8.56321 | 18897 ft | 314 kts | 210° |
| 2026-05-09 09:18 | 39.51597 | -8.57787 | 18646 ft | 312 kts | 210° |
| 2026-05-09 09:18 | 39.49740 | -8.59246 | 18394 ft | 311 kts | 210° |
| 2026-05-09 09:18 | 39.47893 | -8.60697 | 18148 ft | 310 kts | 210° |
| 2026-05-09 09:18 | 39.46073 | -8.62126 | 17893 ft | 309 kts | 210° |
| 2026-05-09 09:19 | 39.44238 | -8.63567 | 17644 ft | 308 kts | 210° |
| 2026-05-09 09:19 | 39.42410 | -8.65002 | 17394 ft | 307 kts | 210° |
| 2026-05-09 09:19 | 39.40588 | -8.66430 | 17143 ft | 305 kts | 210° |
| 2026-05-09 09:19 | 39.38773 | -8.67849 | 16891 ft | 304 kts | 210° |
| 2026-05-09 09:20 | 39.36963 | -8.69264 | 16640 ft | 303 kts | 210° |
| 2026-05-09 09:20 | 39.35163 | -8.70672 | 16390 ft | 302 kts | 210° |
| 2026-05-09 09:20 | 39.33457 | -8.72245 | 16139 ft | 302 kts | 223° |
| 2026-05-09 09:20 | 39.32198 | -8.74413 | 15886 ft | 304 kts | 241° |
| 2026-05-09 09:21 | 39.31539 | -8.77002 | 15637 ft | 307 kts | 259° |
| 2026-05-09 09:21 | 39.31467 | -8.79765 | 15382 ft | 309 kts | 267° |
| 2026-05-09 09:21 | 39.31483 | -8.82536 | 15136 ft | 308 kts | 267° |
| 2026-05-09 09:21 | 39.31496 | -8.85295 | 14885 ft | 307 kts | 267° |
| 2026-05-09 09:22 | 39.31509 | -8.88043 | 14637 ft | 306 kts | 267° |
| 2026-05-09 09:22 | 39.31523 | -8.90781 | 14384 ft | 304 kts | 267° |
| 2026-05-09 09:22 | 39.31537 | -8.93512 | 14131 ft | 303 kts | 267° |
| 2026-05-09 09:22 | 39.31546 | -8.96229 | 13881 ft | 302 kts | 267° |
| 2026-05-09 09:23 | 39.31553 | -8.98935 | 13631 ft | 301 kts | 267° |
| 2026-05-09 09:23 | 39.31558 | -9.01632 | 13380 ft | 300 kts | 267° |
| 2026-05-09 09:23 | 39.31562 | -9.04320 | 13129 ft | 299 kts | 267° |
| 2026-05-09 09:23 | 39.31568 | -9.06999 | 12878 ft | 298 kts | 267° |
| 2026-05-09 09:24 | 39.31573 | -9.09671 | 12626 ft | 297 kts | 267° |
| 2026-05-09 09:24 | 39.31579 | -9.12331 | 12374 ft | 296 kts | 267° |
| 2026-05-09 09:24 | 39.31585 | -9.14982 | 12123 ft | 295 kts | 267° |
| 2026-05-09 09:24 | 39.31589 | -9.17627 | 11871 ft | 294 kts | 267° |
| 2026-05-09 09:25 | 39.31593 | -9.20228 | 11623 ft | 293 kts | 267° |
| 2026-05-09 09:25 | 39.31596 | -9.22853 | 11375 ft | 292 kts | 267° |
| 2026-05-09 09:25 | 39.31600 | -9.25472 | 11128 ft | 291 kts | 267° |
| 2026-05-09 09:25 | 39.31604 | -9.28115 | 10870 ft | 290 kts | 267° |
| 2026-05-09 09:26 | 39.31605 | -9.30679 | 10621 ft | 289 kts | 267° |
| 2026-05-09 09:26 | 39.31606 | -9.33274 | 10370 ft | 289 kts | 267° |
| 2026-05-09 09:26 | 39.31605 | -9.35862 | 10119 ft | 288 kts | 267° |
| 2026-05-09 09:26 | 39.31603 | -9.38427 | 9861 ft | 283 kts | 267° |
| 2026-05-09 09:27 | 39.31320 | -9.40875 | 9676 ft | 270 kts | 245° |
| 2026-05-09 09:27 | 39.30287 | -9.42800 | 9549 ft | 257 kts | 219° |
| 2026-05-09 09:27 | 39.28748 | -9.43890 | 9420 ft | 253 kts | 194° |
| 2026-05-09 09:27 | 39.26997 | -9.44079 | 9241 ft | 253 kts | 180° |
| 2026-05-09 09:28 | 39.25238 | -9.44067 | 8893 ft | 253 kts | 180° |
| 2026-05-09 09:28 | 39.23482 | -9.44051 | 8552 ft | 252 kts | 181° |
| 2026-05-09 09:28 | 39.21731 | -9.44037 | 8223 ft | 250 kts | 180° |
| 2026-05-09 09:28 | 39.19995 | -9.44021 | 7884 ft | 249 kts | 180° |
| 2026-05-09 09:29 | 39.18265 | -9.44007 | 7555 ft | 248 kts | 181° |
| 2026-05-09 09:29 | 39.16552 | -9.43906 | 7302 ft | 244 kts | 170° |
| 2026-05-09 09:29 | 39.15014 | -9.43133 | 7176 ft | 235 kts | 148° |
| 2026-05-09 09:29 | 39.13885 | -9.41645 | 6958 ft | 234 kts | 124° |
| 2026-05-09 09:30 | 39.13061 | -9.39851 | 6753 ft | 232 kts | 123° |
| 2026-05-09 09:30 | 39.12250 | -9.38052 | 6724 ft | 233 kts | 123° |
| 2026-05-09 09:30 | 39.11436 | -9.36245 | 6730 ft | 233 kts | 123° |
| 2026-05-09 09:30 | 39.10619 | -9.34437 | 6731 ft | 234 kts | 123° |
| 2026-05-09 09:31 | 39.09803 | -9.32631 | 6748 ft | 233 kts | 123° |
| 2026-05-09 09:31 | 39.08987 | -9.30821 | 6769 ft | 234 kts | 123° |
| 2026-05-09 09:31 | 39.08170 | -9.29012 | 6778 ft | 234 kts | 123° |
| 2026-05-09 09:32 | 39.06530 | -9.25398 | 6789 ft | 234 kts | 123° |
| 2026-05-09 09:32 | 39.05708 | -9.23592 | 6795 ft | 234 kts | 123° |
| 2026-05-09 09:32 | 39.04884 | -9.21787 | 6789 ft | 234 kts | 123° |
| 2026-05-09 09:32 | 39.04066 | -9.19982 | 6802 ft | 234 kts | 123° |
| 2026-05-09 09:33 | 39.03248 | -9.18175 | 6804 ft | 233 kts | 123° |
| 2026-05-09 09:33 | 39.02430 | -9.16372 | 6807 ft | 234 kts | 123° |
| 2026-05-09 09:33 | 39.01606 | -9.14562 | 6698 ft | 234 kts | 123° |
| 2026-05-09 09:33 | 39.00806 | -9.12797 | 6296 ft | 230 kts | 123° |
| 2026-05-09 09:34 | 38.99999 | -9.11027 | 5818 ft | 229 kts | 123° |
| 2026-05-09 09:34 | 38.99194 | -9.09266 | 5293 ft | 228 kts | 123° |
| 2026-05-09 09:34 | 38.98394 | -9.07514 | 4828 ft | 226 kts | 123° |
| 2026-05-09 09:36 | 38.96929 | -8.95588 | 4120 ft | 236 kts | 24° |
| 2026-05-09 09:36 | 38.98434 | -8.94727 | 4115 ft | 237 kts | 24° |
| 2026-05-09 09:36 | 38.99942 | -8.93867 | 4111 ft | 238 kts | 24° |
| 2026-05-09 09:37 | 39.01513 | -8.93281 | 4109 ft | 236 kts | 359° |
| 2026-05-09 09:37 | 39.03065 | -8.93814 | 4109 ft | 232 kts | 323° |
| 2026-05-09 09:37 | 39.04110 | -8.95319 | 4109 ft | 226 kts | 290° |
| 2026-05-09 09:37 | 39.04362 | -8.97254 | 4110 ft | 219 kts | 259° |
| 2026-05-09 09:38 | 39.03807 | -8.99037 | 4107 ft | 216 kts | 229° |
| 2026-05-09 09:38 | 39.02670 | -9.00265 | 4108 ft | 214 kts | 209° |
| 2026-05-09 09:38 | 39.01334 | -9.01120 | 4105 ft | 215 kts | 204° |
| 2026-05-09 09:38 | 38.99958 | -9.01878 | 4108 ft | 215 kts | 202° |
| 2026-05-09 09:39 | 38.98580 | -9.02616 | 4108 ft | 215 kts | 202° |
| 2026-05-09 09:39 | 38.97200 | -9.03357 | 4043 ft | 215 kts | 202° |
| 2026-05-09 09:39 | 38.95820 | -9.04101 | 3819 ft | 214 kts | 202° |
| 2026-05-09 09:39 | 38.94447 | -9.04838 | 3550 ft | 213 kts | 202° |
| 2026-05-09 09:40 | 38.93079 | -9.05574 | 3272 ft | 213 kts | 202° |
| 2026-05-09 09:40 | 38.92173 | -9.06061 | 3091 ft | 213 kts | 202° |
| 2026-05-09 09:40 | 38.90805 | -9.06796 | 2796 ft | 213 kts | 202° |
| 2026-05-09 09:40 | 38.89462 | -9.07518 | 2518 ft | 204 kts | 202° |
| 2026-05-09 09:41 | 38.88185 | -9.08204 | 2277 ft | 192 kts | 202° |
| 2026-05-09 09:41 | 38.86995 | -9.08842 | 2012 ft | 179 kts | 202° |
| 2026-05-09 09:41 | 38.85888 | -9.09437 | 1802 ft | 164 kts | 203° |
| 2026-05-09 09:41 | 38.84899 | -9.09966 | 1578 ft | 146 kts | 203° |
| 2026-05-09 09:42 | 38.84291 | -9.10293 | 1451 ft | 141 kts | 203° |
| 2026-05-09 09:42 | 38.83098 | -9.10932 | 1205 ft | 138 kts | 202° |
| 2026-05-09 09:42 | 38.82215 | -9.11406 | 1022 ft | 137 kts | 202° |
| 2026-05-09 09:42 | 38.81336 | -9.11877 | 835 ft | 137 kts | 202° |
| 2026-05-09 09:43 | 38.80457 | -9.12348 | 652 ft | 137 kts | 201° |
| 2026-05-09 09:43 | 38.79580 | -9.12822 | 431 ft | 137 kts | 202° |
| 2026-05-09 09:43 | 38.78737 | -9.13277 | 352 ft | 124 kts | 203° |
| 2026-05-09 09:43 | 38.78194 | -9.13560 | 352 ft | 50 kts | 202° |
| 2026-05-09 09:44 | 38.77914 | -9.13709 | 344 ft | 27 kts | 202° |
| 2026-05-09 09:44 | 38.77760 | -9.13762 | 342 ft | 21 kts | 184° |
| 2026-05-09 09:44 | 38.77609 | -9.13758 | 348 ft | 22 kts | 178° |
| 2026-05-09 09:44 | 38.77506 | -9.13753 | 346 ft | 15 kts | 178° |
| 2026-05-09 09:45 | 38.77398 | -9.13764 | 355 ft | 16 kts | 191° |
| 2026-05-09 09:45 | 38.77301 | -9.13792 | 348 ft | 13 kts | 169° |
| 2026-05-09 09:45 | 38.77262 | -9.13702 | 350 ft | 12 kts | 84° |
| 2026-05-09 09:45 | 38.77280 | -9.13600 | 347 ft | 11 kts | 76° |
| 2026-05-09 09:46 | 38.77302 | -9.13468 | 352 ft | 18 kts | 78° |
| 2026-05-09 09:46 | 38.77328 | -9.13311 | 347 ft | 14 kts | 81° |
| 2026-05-09 09:46 | 38.77266 | -9.13243 | 347 ft | 13 kts | 168° |
| 2026-05-09 09:46 | 38.77200 | -9.13212 | 347 ft | 7 kts | 120° |
| 2026-05-09 09:47 | 38.77205 | -9.13162 | 357 ft | 5 kts | 75° |
| 2026-05-09 09:47 | 38.77207 | -9.13153 | 352 ft | 0 kts | 75° |
| 2026-05-09 09:47 | 38.77208 | -9.13149 | 347 ft | 0 kts | 75° |
| 2026-05-09 09:47 | 38.77208 | -9.13148 | 347 ft | 0 kts | 75° |